createdAt,value
2023-02-15T00:00:07.069Z,45.27
2023-02-15T00:02:33.528Z,44.97
2023-02-15T00:05:00.106Z,50.80
2023-02-15T00:07:26.581Z,47.80
2023-02-15T00:09:53.130Z,45.47
2023-02-15T00:12:19.712Z,44.63
2023-02-15T00:14:48.305Z,42.77
2023-02-15T00:17:14.832Z,46.57
2023-02-15T00:19:41.662Z,47.07
2023-02-15T00:22:08.311Z,44.83
2023-02-15T00:24:34.816Z,45.33
2023-02-15T00:27:01.391Z,46.67
2023-02-15T00:29:27.948Z,40.80
2023-02-15T00:31:54.637Z,43.67
2023-02-15T00:34:25.138Z,44.53
2023-02-15T00:36:51.947Z,44.87
2023-02-15T00:39:18.811Z,45.03
2023-02-15T00:41:45.669Z,42.80
2023-02-15T00:44:12.214Z,43.43
2023-02-15T00:46:38.892Z,46.53
2023-02-15T00:49:05.814Z,46.17
2023-02-15T00:51:32.763Z,44.77
2023-02-15T00:53:59.307Z,43.87
2023-02-15T00:56:25.818Z,42.90
2023-02-15T00:58:52.409Z,44.87
2023-02-15T01:01:19.739Z,41.17
2023-02-15T01:03:47.672Z,50.10
2023-02-15T01:06:14.960Z,48.73
2023-02-15T01:08:43.299Z,44.67
2023-02-15T01:11:11.366Z,41.90
2023-02-15T01:13:37.991Z,44.90
2023-02-15T01:16:06.099Z,47.70
2023-02-15T01:18:33.144Z,46.93
2023-02-15T01:20:59.747Z,45.67
2023-02-15T01:23:26.272Z,42.57
2023-02-15T01:25:52.815Z,43.47
2023-02-15T01:28:19.344Z,42.57
2023-02-15T01:30:45.934Z,43.17
2023-02-15T01:33:18.941Z,42.87
2023-02-15T01:35:47.166Z,46.63
2023-02-15T01:38:16.704Z,44.17
2023-02-15T01:40:43.239Z,38.70
2023-02-15T01:43:12.909Z,43.07
2023-02-15T01:45:40.031Z,41.47
2023-02-15T01:48:18.576Z,38.13
2023-02-15T01:50:47.625Z,40.17
2023-02-15T01:53:17.546Z,42.87
2023-02-15T01:55:46.145Z,37.03
2023-02-15T01:58:15.251Z,42.00
2023-02-15T02:00:41.887Z,43.20
2023-02-15T02:03:09.177Z,43.97
2023-02-15T02:05:35.858Z,39.57
2023-02-15T02:08:03.166Z,46.70
2023-02-15T02:10:31.812Z,44.77
2023-02-15T02:13:00.055Z,41.60
2023-02-15T02:15:35.003Z,38.33
2023-02-15T02:18:06.267Z,39.87
2023-02-15T02:20:39.094Z,44.97
2023-02-15T02:23:21.980Z,42.50
2023-02-15T02:25:56.612Z,40.47
2023-02-15T02:28:24.207Z,39.03
2023-02-15T02:31:13.720Z,42.97
2023-02-15T02:33:40.699Z,35.47
2023-02-15T02:36:15.282Z,41.07
2023-02-15T02:39:01.568Z,45.30
2023-02-15T02:41:37.102Z,39.63
2023-02-15T02:44:22.553Z,39.10
2023-02-15T02:46:55.369Z,38.97
2023-02-15T02:49:32.344Z,42.13
2023-02-15T02:52:00.337Z,40.17
2023-02-15T02:54:27.503Z,42.10
2023-02-15T02:56:55.394Z,39.83
2023-02-15T02:59:24.908Z,41.70
2023-02-15T03:01:58.644Z,39.53
2023-02-15T03:04:28.152Z,40.37
2023-02-15T03:07:15.700Z,38.93
2023-02-15T03:09:49.538Z,36.33
2023-02-15T03:12:27.686Z,35.17
2023-02-15T03:14:58.549Z,35.53
2023-02-15T03:17:26.254Z,36.47
2023-02-15T03:19:53.856Z,36.93
2023-02-15T03:22:27.951Z,36.37
2023-02-15T03:24:54.434Z,38.20
2023-02-15T03:27:23.250Z,38.73
2023-02-15T03:29:53.238Z,40.77
2023-02-15T03:32:20.322Z,40.13
2023-02-15T03:34:46.979Z,37.83
2023-02-15T03:37:36.562Z,34.33
2023-02-15T03:40:31.078Z,37.77
2023-02-15T03:43:11.783Z,39.37
2023-02-15T03:45:39.214Z,42.23
2023-02-15T03:48:06.627Z,36.83
2023-02-15T03:50:53.028Z,45.73
2023-02-15T03:53:22.036Z,38.70
2023-02-15T03:55:54.460Z,36.60
2023-02-15T03:58:39.802Z,39.00
2023-02-15T04:01:30.571Z,36.77
2023-02-15T04:04:11.382Z,36.77
2023-02-15T04:06:37.949Z,38.60
2023-02-15T04:09:23.020Z,39.20
2023-02-15T04:11:49.582Z,36.00
2023-02-15T04:14:34.488Z,37.20
2023-02-15T04:17:00.976Z,40.17
2023-02-15T04:19:45.911Z,39.50
2023-02-15T04:22:31.203Z,39.63
2023-02-15T04:25:16.056Z,40.70
2023-02-15T04:27:43.758Z,41.10
2023-02-15T04:30:11.028Z,40.93
2023-02-15T04:32:38.027Z,45.30
2023-02-15T04:35:04.969Z,44.17
2023-02-15T04:37:31.474Z,47.70
2023-02-15T04:39:59.499Z,57.07
2023-02-15T04:42:26.821Z,49.20
2023-02-15T04:44:53.683Z,53.30
2023-02-15T04:47:20.601Z,58.80
2023-02-15T04:49:47.201Z,58.37
2023-02-15T04:52:14.094Z,61.27
2023-02-15T04:54:40.666Z,55.33
2023-02-15T04:57:07.344Z,56.30
2023-02-15T04:59:33.866Z,45.33
2023-02-15T05:02:00.364Z,45.27
2023-02-15T05:04:26.940Z,46.60
2023-02-15T05:06:53.630Z,44.63
2023-02-15T05:09:20.155Z,45.17
2023-02-15T05:11:46.723Z,49.20
2023-02-15T05:14:13.422Z,47.17
2023-02-15T05:16:40.271Z,44.83
2023-02-15T05:19:06.850Z,38.27
2023-02-15T05:21:33.929Z,42.47
2023-02-15T05:24:00.471Z,43.70
2023-02-15T05:26:45.544Z,43.27
2023-02-15T05:29:12.113Z,43.10
2023-02-15T05:31:39.157Z,43.43
2023-02-15T05:34:05.793Z,38.63
2023-02-15T05:36:32.337Z,39.17
2023-02-15T05:38:58.850Z,41.33
2023-02-15T05:41:26.552Z,43.03
2023-02-15T05:43:55.842Z,43.43
2023-02-15T05:46:22.422Z,43.43
2023-02-15T05:48:48.922Z,44.00
2023-02-15T05:51:16.887Z,41.77
2023-02-15T05:53:43.677Z,45.33
2023-02-15T05:56:11.535Z,42.33
2023-02-15T05:58:39.406Z,44.53
2023-02-15T06:01:16.412Z,44.23
2023-02-15T06:03:43.189Z,43.10
2023-02-15T06:06:10.186Z,37.50
2023-02-15T06:08:37.463Z,41.07
2023-02-15T06:11:04.567Z,41.23
2023-02-15T06:13:31.385Z,40.53
2023-02-15T06:15:57.946Z,40.07
2023-02-15T06:18:24.687Z,40.40
2023-02-15T06:20:51.472Z,45.10
2023-02-15T06:23:18.616Z,44.47
2023-02-15T06:25:45.977Z,43.43
2023-02-15T06:28:12.584Z,46.87
2023-02-15T06:30:39.121Z,42.67
2023-02-15T06:33:05.713Z,48.10
2023-02-15T06:35:32.252Z,46.30
2023-02-15T06:37:58.746Z,44.80
2023-02-15T06:40:25.257Z,47.23
2023-02-15T06:42:51.810Z,43.63
2023-02-15T06:45:18.357Z,45.17
2023-02-15T06:47:44.877Z,46.47
2023-02-15T06:50:11.759Z,53.57
2023-02-15T06:52:38.270Z,51.13
2023-02-15T06:55:04.890Z,57.70
2023-02-15T06:57:31.433Z,55.50
2023-02-15T06:59:59.365Z,54.93
2023-02-15T07:02:25.987Z,51.80
2023-02-15T07:04:52.501Z,53.07
2023-02-15T07:07:19.146Z,53.03
2023-02-15T07:09:45.644Z,54.13
2023-02-15T07:12:30.881Z,54.43
2023-02-15T07:14:59.137Z,56.77
2023-02-15T07:17:36.894Z,49.10
2023-02-15T07:20:11.199Z,48.63
2023-02-15T07:22:38.221Z,45.93
2023-02-15T07:25:05.696Z,52.13
2023-02-15T07:27:32.220Z,49.67
2023-02-15T07:29:59.099Z,62.80
2023-02-15T07:32:28.037Z,57.90
2023-02-15T07:34:54.605Z,52.90
2023-02-15T07:37:21.094Z,54.07
2023-02-15T07:39:47.643Z,57.83
2023-02-15T07:42:14.195Z,60.03
2023-02-15T07:44:41.056Z,54.40
2023-02-15T07:47:07.594Z,50.80
2023-02-15T07:49:34.133Z,55.60
2023-02-15T07:52:01.398Z,51.43
2023-02-15T07:54:27.909Z,52.90
2023-02-15T07:56:54.432Z,56.57
2023-02-15T07:59:20.915Z,55.93
2023-02-15T08:01:47.439Z,98.03
2023-02-15T08:04:13.997Z,91.17
2023-02-15T08:06:40.510Z,76.90
2023-02-15T08:09:07.854Z,69.03
2023-02-15T08:11:38.492Z,77.20
2023-02-15T08:14:05.076Z,56.53
2023-02-15T08:16:43.706Z,61.57
2023-02-15T08:19:10.263Z,60.57
2023-02-15T08:21:38.128Z,62.80
2023-02-15T08:24:05.174Z,59.43
2023-02-15T08:26:31.948Z,58.30
2023-02-15T08:28:59.298Z,57.83
2023-02-15T08:31:26.448Z,63.03
2023-02-15T08:33:54.211Z,64.77
2023-02-15T08:36:21.828Z,70.57
2023-02-15T08:38:48.626Z,69.90
2023-02-15T08:41:22.370Z,62.17
2023-02-15T08:43:50.474Z,70.40
2023-02-15T08:46:17.737Z,88.97
2023-02-15T08:48:44.955Z,73.80
2023-02-15T08:51:13.231Z,65.97
2023-02-15T08:53:40.697Z,132.17
2023-02-15T08:56:07.550Z,162.17
2023-02-15T08:58:34.693Z,70.00
2023-02-15T09:01:03.718Z,72.83
2023-02-15T09:03:30.543Z,72.30
2023-02-15T09:06:01.100Z,65.40
2023-02-15T09:08:28.147Z,69.33
2023-02-15T09:10:54.914Z,63.87
2023-02-15T09:13:22.120Z,66.83
2023-02-15T09:15:48.712Z,62.70
2023-02-15T09:18:18.040Z,64.43
2023-02-15T09:20:45.678Z,61.73
2023-02-15T09:23:25.475Z,64.53
2023-02-15T09:25:53.167Z,64.63
2023-02-15T09:28:19.707Z,63.80
2023-02-15T09:30:46.422Z,64.50
2023-02-15T09:33:13.053Z,68.33
2023-02-15T09:35:39.528Z,61.57
2023-02-15T09:38:06.050Z,63.63
2023-02-15T09:40:34.970Z,63.43
2023-02-15T09:43:12.091Z,61.23
2023-02-15T09:45:38.724Z,56.47
2023-02-15T09:48:07.989Z,56.43
2023-02-15T09:50:53.171Z,60.33
2023-02-15T09:53:28.646Z,55.30
2023-02-15T09:56:13.583Z,53.30
2023-02-15T09:58:46.224Z,49.93
2023-02-15T10:01:15.952Z,56.27
2023-02-15T10:03:42.476Z,48.83
2023-02-15T10:06:11.839Z,47.63
2023-02-15T10:09:07.728Z,49.23
2023-02-15T10:11:51.692Z,44.43
2023-02-15T10:14:30.161Z,47.80
2023-02-15T10:16:59.750Z,44.47
2023-02-15T10:19:32.259Z,42.73
2023-02-15T10:22:17.346Z,41.57
2023-02-15T10:24:55.399Z,39.77
2023-02-15T10:27:22.311Z,39.57
2023-02-15T10:29:55.284Z,42.50
2023-02-15T10:32:23.824Z,38.23
2023-02-15T10:35:08.914Z,39.70
2023-02-15T10:37:50.940Z,38.87
2023-02-15T10:40:35.647Z,40.03
2023-02-15T10:43:03.261Z,38.80
2023-02-15T10:45:40.675Z,39.70
2023-02-15T10:48:12.793Z,37.03
2023-02-15T10:51:18.138Z,39.77
2023-02-15T10:53:58.569Z,36.10
2023-02-15T10:56:27.930Z,35.87
2023-02-15T10:58:57.211Z,36.37
2023-02-15T11:01:42.342Z,33.83
2023-02-15T11:04:18.088Z,33.27
2023-02-15T11:06:49.374Z,33.30
2023-02-15T11:09:19.236Z,36.23
2023-02-15T11:11:48.371Z,36.47
2023-02-15T11:14:24.315Z,32.07
2023-02-15T11:16:53.624Z,31.50
2023-02-15T11:19:25.267Z,33.93
2023-02-15T11:21:54.255Z,31.90
2023-02-15T11:24:21.296Z,33.47
2023-02-15T11:26:58.957Z,33.87
2023-02-15T11:29:34.689Z,31.37
2023-02-15T11:32:03.768Z,28.77
2023-02-15T11:34:38.481Z,30.77
2023-02-15T11:37:27.702Z,30.03
2023-02-15T11:39:55.805Z,32.10
2023-02-15T11:42:24.866Z,28.53
2023-02-15T11:44:57.486Z,28.23
2023-02-15T11:47:24.204Z,30.87
2023-02-15T11:49:50.815Z,29.40
2023-02-15T11:52:19.405Z,28.50
2023-02-15T11:54:52.757Z,29.00
2023-02-15T11:57:24.460Z,29.40
2023-02-15T12:00:28.018Z,31.13
2023-02-15T12:02:55.579Z,24.80
2023-02-15T12:05:24.355Z,28.17
2023-02-15T12:07:56.564Z,28.27
2023-02-15T12:10:23.009Z,26.33
2023-02-15T12:13:10.965Z,29.40
2023-02-15T12:15:37.520Z,28.57
2023-02-15T12:18:04.411Z,26.10
2023-02-15T12:20:32.933Z,25.13
2023-02-15T12:23:05.389Z,25.87
2023-02-15T12:25:31.781Z,26.03
2023-02-15T12:27:58.483Z,27.93
2023-02-15T12:30:45.221Z,27.40
2023-02-15T12:33:23.864Z,23.70
2023-02-15T12:35:55.834Z,25.70
2023-02-15T12:38:28.444Z,25.13
2023-02-15T12:41:05.349Z,22.93
2023-02-15T12:43:41.118Z,24.03
2023-02-15T12:46:27.844Z,27.57
2023-02-15T12:49:13.841Z,28.77
2023-02-15T12:51:52.975Z,23.47
2023-02-15T12:54:25.555Z,21.90
2023-02-15T12:56:52.583Z,22.13
2023-02-15T12:59:23.270Z,24.83
2023-02-15T13:01:50.611Z,23.47
2023-02-15T13:04:22.538Z,21.17
2023-02-15T13:06:50.176Z,22.10
2023-02-15T13:09:20.332Z,23.20
2023-02-15T13:11:47.188Z,21.27
2023-02-15T13:14:16.455Z,22.00
2023-02-15T13:16:44.214Z,24.57
2023-02-15T13:19:13.556Z,25.03
2023-02-15T13:21:41.152Z,22.13
2023-02-15T13:24:14.790Z,24.38
2023-02-15T13:26:45.638Z,23.23
2023-02-15T13:29:33.287Z,21.27
2023-02-15T13:32:06.211Z,25.73
2023-02-15T13:34:34.499Z,24.10
2023-02-15T13:37:03.969Z,26.87
2023-02-15T13:39:30.466Z,25.93
2023-02-15T13:42:03.243Z,37.73
2023-02-15T13:44:50.899Z,24.53
2023-02-15T13:47:23.950Z,23.67
2023-02-15T13:50:07.070Z,26.33
2023-02-15T13:52:38.739Z,23.33
2023-02-15T13:55:08.112Z,22.03
2023-02-15T13:57:37.293Z,204.33
2023-02-15T14:00:06.902Z,24.93
2023-02-15T14:02:58.597Z,19.80
2023-02-15T14:05:37.402Z,55.53
2023-02-15T14:08:06.075Z,25.87
2023-02-15T14:10:34.608Z,22.57
2023-02-15T14:13:04.075Z,20.87
2023-02-15T14:15:30.577Z,22.80
2023-02-15T14:18:15.928Z,20.77
2023-02-15T14:20:42.368Z,21.47
2023-02-15T14:27:08.232Z,21.27
2023-02-15T14:29:34.624Z,23.47
2023-02-15T14:32:05.125Z,21.23
2023-02-15T14:34:37.460Z,24.77
2023-02-15T14:37:04.396Z,22.37
2023-02-15T14:39:55.830Z,21.07
2023-02-15T14:42:26.629Z,20.63
2023-02-15T14:45:02.871Z,22.37
2023-02-15T14:47:34.854Z,22.77
2023-02-15T14:50:21.433Z,21.73
2023-02-15T14:53:06.521Z,20.53
2023-02-15T14:55:37.433Z,21.10
2023-02-15T14:58:11.854Z,21.37
2023-02-15T15:00:39.834Z,24.10
2023-02-15T15:03:20.042Z,24.07
2023-02-15T15:05:51.008Z,22.27
2023-02-15T15:08:38.134Z,21.80
2023-02-15T15:11:42.121Z,20.30
2023-02-15T15:14:09.845Z,19.17
2023-02-15T15:16:36.695Z,21.80
2023-02-15T15:19:10.240Z,22.33
2023-02-15T15:21:56.252Z,21.60
2023-02-15T15:24:38.050Z,22.80
2023-02-15T15:27:39.824Z,22.50
2023-02-15T15:30:15.706Z,25.40
2023-02-15T15:32:46.196Z,19.57
2023-02-15T15:35:31.471Z,22.97
2023-02-15T15:38:00.813Z,23.77
2023-02-15T15:40:37.606Z,23.33
2023-02-15T15:43:04.074Z,22.07
2023-02-15T15:45:39.803Z,23.40
2023-02-15T15:48:09.110Z,23.73
2023-02-15T15:50:35.876Z,22.90
2023-02-15T15:53:03.284Z,22.93
2023-02-15T15:55:31.328Z,22.50
2023-02-15T15:58:00.638Z,24.50
2023-02-15T16:00:32.969Z,23.77
2023-02-15T16:02:59.580Z,25.33
2023-02-15T16:05:26.148Z,32.50
2023-02-15T16:07:52.691Z,29.10
2023-02-15T16:10:24.058Z,25.90
2023-02-15T16:12:51.563Z,26.70
2023-02-15T16:15:25.314Z,29.73
2023-02-15T16:17:55.856Z,23.40
2023-02-15T16:20:24.352Z,25.27
2023-02-15T16:22:57.206Z,22.90
2023-02-15T16:25:32.808Z,22.63
2023-02-15T16:28:07.087Z,25.77
2023-02-15T16:30:37.466Z,23.77
2023-02-15T16:33:08.549Z,23.93
2023-02-15T16:35:36.432Z,29.73
2023-02-15T16:38:03.429Z,26.97
2023-02-15T16:40:35.602Z,28.67
2023-02-15T16:43:03.441Z,27.20
2023-02-15T16:45:30.720Z,25.47
2023-02-15T16:47:58.189Z,25.00
2023-02-15T16:50:27.519Z,26.90
2023-02-15T16:52:54.167Z,26.40
2023-02-15T16:55:23.094Z,28.63
2023-02-15T16:57:50.007Z,33.00
2023-02-15T17:00:21.603Z,31.87
2023-02-15T17:03:14.395Z,29.93
2023-02-15T17:05:40.908Z,27.90
2023-02-15T17:08:07.735Z,29.27
2023-02-15T17:10:37.249Z,28.73
2023-02-15T17:13:05.453Z,29.93
2023-02-15T17:15:36.252Z,32.47
2023-02-15T17:18:18.800Z,30.00
2023-02-15T17:20:45.923Z,27.60
2023-02-15T17:23:38.525Z,29.73
2023-02-15T17:26:16.369Z,28.63
2023-02-15T17:28:51.329Z,33.73
2023-02-15T17:31:19.018Z,30.17
2023-02-15T17:33:45.783Z,33.43
2023-02-15T17:36:14.729Z,32.67
2023-02-15T17:38:42.177Z,34.07
2023-02-15T17:41:09.844Z,34.33
2023-02-15T17:43:36.643Z,32.17
2023-02-15T17:46:03.285Z,37.73
2023-02-15T17:48:32.333Z,35.67
2023-02-15T17:50:59.625Z,33.57
2023-02-15T17:53:26.148Z,35.10
2023-02-15T17:55:52.764Z,35.10
2023-02-15T17:58:19.793Z,34.40
2023-02-15T18:01:15.813Z,32.30
2023-02-15T18:04:01.132Z,32.17
2023-02-15T18:06:46.356Z,35.53
2023-02-15T18:09:35.746Z,44.17
2023-02-15T18:12:02.752Z,38.88
2023-02-15T18:14:29.345Z,34.87
2023-02-15T18:16:56.099Z,34.53
2023-02-15T18:19:23.645Z,38.67
2023-02-15T18:21:52.548Z,33.87
2023-02-15T18:24:24.347Z,35.30
2023-02-15T18:26:51.513Z,31.97
2023-02-15T18:29:18.061Z,36.10
2023-02-15T18:31:45.799Z,33.50
2023-02-15T18:34:32.898Z,40.03
2023-02-15T18:37:00.999Z,45.53
2023-02-15T18:39:27.543Z,42.27
2023-02-15T18:41:54.125Z,40.67
2023-02-15T18:44:20.734Z,36.20
2023-02-15T18:46:47.292Z,42.07
2023-02-15T18:49:13.843Z,42.23
2023-02-15T18:51:41.052Z,46.90
2023-02-15T18:54:15.679Z,46.23
2023-02-15T18:56:42.244Z,43.63
2023-02-15T18:59:14.802Z,42.27
2023-02-15T19:01:42.828Z,45.63
2023-02-15T19:04:09.407Z,44.87
2023-02-15T19:06:37.352Z,48.60
2023-02-15T19:09:03.944Z,45.03
2023-02-15T19:11:30.501Z,43.97
2023-02-15T19:13:57.035Z,45.53
2023-02-15T19:16:27.144Z,42.80
2023-02-15T19:18:53.669Z,46.17
2023-02-15T19:21:20.245Z,42.07
2023-02-15T19:23:49.148Z,46.73
2023-02-15T19:26:15.609Z,45.37
2023-02-15T19:28:42.164Z,44.87
2023-02-15T19:31:11.647Z,43.10
2023-02-15T19:33:38.287Z,45.63
2023-02-15T19:36:05.821Z,47.77
2023-02-15T19:38:33.584Z,52.97
2023-02-15T19:41:06.133Z,49.03
2023-02-15T19:43:33.789Z,45.67
2023-02-15T19:46:00.474Z,39.50
2023-02-15T19:48:27.023Z,46.30
2023-02-15T19:50:53.560Z,46.13
2023-02-15T19:53:24.236Z,42.80
2023-02-15T19:55:51.385Z,46.97
2023-02-15T19:58:21.220Z,44.07
2023-02-15T20:00:48.730Z,48.57
2023-02-15T20:03:15.547Z,44.60
2023-02-15T20:05:42.816Z,45.10
2023-02-15T20:08:19.561Z,44.90
2023-02-15T20:10:46.444Z,50.50
2023-02-15T20:13:14.044Z,47.40
2023-02-15T20:15:41.162Z,49.97
2023-02-15T20:18:07.803Z,48.10
2023-02-15T20:20:44.644Z,43.93
2023-02-15T20:23:31.471Z,48.17
2023-02-15T20:25:59.319Z,48.83
2023-02-15T20:28:27.861Z,52.70
2023-02-15T20:30:54.622Z,46.40
2023-02-15T20:33:21.671Z,48.23
2023-02-15T20:35:48.940Z,50.77
2023-02-15T20:38:20.190Z,53.70
2023-02-15T20:41:05.563Z,52.97
2023-02-15T20:43:32.503Z,52.57
2023-02-15T20:45:59.222Z,46.93
2023-02-15T20:48:25.771Z,48.50
2023-02-15T20:50:53.467Z,48.80
2023-02-15T20:53:20.938Z,49.27
2023-02-15T20:55:47.816Z,43.30
2023-02-15T20:58:32.571Z,40.93
2023-02-15T21:00:59.467Z,47.07
2023-02-15T21:03:27.927Z,40.97
2023-02-15T21:05:54.458Z,48.40
2023-02-15T21:08:21.986Z,43.90
2023-02-15T21:10:50.506Z,42.10
2023-02-15T21:13:22.632Z,47.37
2023-02-15T21:15:50.160Z,43.13
2023-02-15T21:18:24.065Z,45.63
2023-02-15T21:20:52.382Z,44.90
2023-02-15T21:23:21.574Z,39.77
2023-02-15T21:25:48.291Z,42.53
2023-02-15T21:28:20.245Z,45.17
2023-02-15T21:30:47.555Z,42.33
2023-02-15T21:33:15.022Z,43.07
2023-02-15T21:35:42.085Z,44.27
2023-02-15T21:38:12.907Z,47.73
2023-02-15T21:40:39.450Z,44.83
2023-02-15T21:43:24.763Z,47.50
2023-02-15T21:46:17.628Z,46.97
2023-02-15T21:48:44.880Z,49.67
2023-02-15T21:51:29.771Z,48.60
2023-02-15T21:53:56.351Z,44.80
2023-02-15T21:56:24.343Z,48.37
2023-02-15T21:58:50.915Z,42.53
2023-02-15T22:01:20.269Z,45.70
2023-02-15T22:03:46.859Z,45.73
2023-02-15T22:06:14.727Z,46.27
2023-02-15T22:08:41.279Z,49.63
2023-02-15T22:11:16.272Z,48.93
2023-02-15T22:13:43.458Z,51.73
2023-02-15T22:16:17.631Z,46.60
2023-02-15T22:18:44.672Z,48.83
2023-02-15T22:21:11.657Z,55.33
2023-02-15T22:23:38.686Z,51.77
2023-02-15T22:26:24.436Z,54.57
2023-02-15T22:28:51.208Z,54.97
2023-02-15T22:31:19.891Z,54.57
2023-02-15T22:33:46.448Z,53.37
2023-02-15T22:36:23.985Z,52.50
2023-02-15T22:38:50.658Z,54.73
2023-02-15T22:41:17.338Z,55.93
2023-02-15T22:43:45.015Z,54.20
2023-02-15T22:46:19.093Z,58.90
2023-02-15T22:48:46.383Z,57.17
2023-02-15T22:51:17.744Z,56.77
2023-02-15T22:53:44.638Z,59.67
2023-02-15T22:56:18.334Z,55.20
2023-02-15T22:58:45.318Z,52.10
2023-02-15T23:01:30.206Z,57.63
2023-02-15T23:03:56.826Z,52.27
2023-02-15T23:06:23.379Z,49.07
2023-02-15T23:08:49.937Z,49.50
2023-02-15T23:11:16.984Z,51.97
2023-02-15T23:13:43.548Z,46.60
2023-02-15T23:16:13.107Z,44.03
2023-02-15T23:18:43.654Z,51.87
2023-02-15T23:21:16.131Z,47.60
2023-02-15T23:23:43.823Z,41.60
2023-02-15T23:26:21.478Z,44.93
2023-02-15T23:28:48.575Z,45.33
2023-02-15T23:31:19.773Z,43.57
2023-02-15T23:33:47.146Z,41.03
2023-02-15T23:36:23.744Z,45.13
2023-02-15T23:38:50.228Z,49.00
2023-02-15T23:41:19.551Z,41.77
2023-02-15T23:43:48.948Z,48.50
2023-02-15T23:46:35.671Z,48.67
2023-02-15T23:49:14.682Z,46.70
2023-02-15T23:51:42.669Z,48.73
2023-02-15T23:54:09.213Z,52.27
2023-02-15T23:56:36.065Z,45.97
2023-02-15T23:59:02.852Z,42.53
